Time;durP1;ratioP1;P1;durP2;ratioP2;P2;SDS_P1;SDS_P2;PMS_P1;PMS_P2;Temp;Humidity;BMP_temperature;BMP_pressure;BME280_temperature;BME280_humidity;BME280_pressure;Samples;Min_cycle;Max_cycle;Signal;HPM_P1;HPM_P2
2021/12/24 00:01:28;;;;;;;;;10.25;8.00;;;;;18.18;37.99;100685.78;5035358;28;51093;-52
2021/12/24 00:03:54;;;;;;;;;10.50;10.00;;;;;18.17;38.05;100680.50;5035410;28;51168;-46
2021/12/24 00:06:19;;;;;;;;;13.00;11.50;;;;;18.17;37.86;100678.63;5035743;28;51126;-53
2021/12/24 00:08:46;;;;;;;;;15.00;13.25;;;;;18.17;37.68;100688.72;5035420;28;51778;-52
2021/12/24 00:11:13;;;;;;;;;11.50;9.75;;;;;18.16;38.10;100687.06;5035222;28;51428;-49
2021/12/24 00:13:42;;;;;;;;;10.25;10.00;;;;;18.17;37.79;100688.72;5035344;28;51054;-48
2021/12/24 00:16:25;;;;;;;;;11.50;10.00;;;;;18.16;37.88;100687.06;5029047;28;51330;-51
2021/12/24 00:19:01;;;;;;;;;11.00;9.50;;;;;18.16;37.77;100681.56;5015107;28;52774;-51
2021/12/24 00:22:19;;;;;;;;;13.00;12.25;;;;;18.17;37.75;100680.50;5015381;28;51271;-52
2021/12/24 00:35:32;;;;;;;;;13.00;12.00;;;;;18.14;37.94;100665.34;5038607;28;51124;-50
2021/12/24 00:38:03;;;;;;;;;10.75;8.25;;;;;18.14;38.24;100673.56;5038759;28;51157;-52
2021/12/24 00:40:34;;;;;;;;;13.50;11.75;;;;;18.14;38.16;100667.22;5038042;28;52919;-51
2021/12/24 00:42:59;;;;;;;;;10.75;9.75;;;;;18.15;37.93;100671.66;5038570;28;51445;-51
2021/12/24 00:45:28;;;;;;;;;10.75;10.75;;;;;18.15;38.00;100657.97;5038427;28;51070;-48
2021/12/24 00:47:56;;;;;;;;;10.75;10.00;;;;;18.15;37.99;100655.22;5038547;28;51367;-51
2021/12/24 00:50:25;;;;;;;;;13.75;11.25;;;;;18.16;37.93;100654.16;5038098;28;51194;-50
2021/12/24 00:52:57;;;;;;;;;14.00;10.75;;;;;18.15;37.89;100649.72;5038373;28;51080;-49
2021/12/24 00:55:26;;;;;;;;;8.75;7.75;;;;;18.14;37.81;100646.16;5038414;28;51132;-50
2021/12/24 00:57:54;;;;;;;;;15.25;13.25;;;;;18.14;38.22;100634.34;5038554;28;51215;-50
2021/12/24 01:00:24;;;;;;;;;14.75;11.25;;;;;18.15;37.85;100627.81;5038154;28;51910;-50
2021/12/24 01:02:52;;;;;;;;;9.75;9.75;;;;;18.15;37.83;100627.81;5038179;28;51088;-47
2021/12/24 01:05:19;;;;;;;;;9.50;9.50;;;;;18.15;38.04;100625.06;5038378;28;50964;-47
2021/12/24 01:07:45;;;;;;;;;10.75;10.25;;;;;18.14;37.97;100607.75;5038258;28;51337;-46
2021/12/24 01:10:12;;;;;;;;;9.75;9.50;;;;;18.15;37.91;100608.59;5037958;28;51040;-53
2021/12/24 01:12:38;;;;;;;;;11.50;10.75;;;;;18.15;38.12;100597.66;5037602;28;51017;-50
2021/12/24 01:15:05;;;;;;;;;10.75;10.25;;;;;18.14;37.99;100596.81;5038100;28;51022;-50
2021/12/24 01:21:08;;;;;;;;;11.75;10.00;;;;;18.14;38.23;100605.03;5017872;28;51073;-46
2021/12/24 01:25:41;;;;;;;;;13.25;11.25;;;;;18.13;38.03;100594.25;5017850;28;51046;-46
2021/12/24 01:39:20;;;;;;;;;10.75;10.75;;;;;18.13;38.10;100600.59;5036459;28;51096;-47
2021/12/24 01:44:30;;;;;;;;;11.50;8.75;;;;;18.13;38.29;100605.22;5037684;28;51008;-49
2021/12/24 01:46:58;;;;;;;;;12.50;10.25;;;;;18.13;38.06;100607.94;5037594;28;51034;-48
2021/12/24 01:49:24;;;;;;;;;12.50;12.00;;;;;18.12;38.02;100606.28;5037537;28;51014;-49
2021/12/24 01:51:51;;;;;;;;;12.50;11.50;;;;;18.13;38.38;100605.22;5037199;28;51077;-48
2021/12/24 01:54:16;;;;;;;;;13.50;10.75;;;;;18.11;38.35;100608.16;5037624;28;51212;-47
2021/12/24 01:56:43;;;;;;;;;12.25;9.50;;;;;18.12;38.20;100609.00;5037414;28;51132;-49
2021/12/24 01:59:08;;;;;;;;;13.50;12.25;;;;;18.11;38.07;100605.44;5037605;28;51242;-50
2021/12/24 02:01:33;;;;;;;;;12.75;10.50;;;;;18.12;38.04;100603.53;5036632;28;51971;-49
2021/12/24 02:03:59;;;;;;;;;11.00;11.00;;;;;18.12;38.32;100592.56;5036677;28;51460;-53
2021/12/24 02:06:24;;;;;;;;;11.00;10.00;;;;;18.13;38.40;100605.22;5037517;28;50970;-46
2021/12/24 02:08:50;;;;;;;;;13.25;10.75;;;;;18.11;38.23;100605.44;5037565;28;51169;-49
2021/12/24 02:11:15;;;;;;;;;10.75;9.50;;;;;18.11;37.97;100604.59;5036792;28;51885;-47
2021/12/24 02:13:41;;;;;;;;;13.25;11.00;;;;;18.12;38.03;100614.50;5037128;28;51067;-47
2021/12/24 02:28:14;;;;;;;;;13.25;10.25;;;;;18.10;38.04;100600.16;5017051;28;51118;-46
2021/12/24 02:29:34;;;;;;;;;13.50;10.25;;;;;18.09;38.09;100577.41;5037098;28;51173;-47
2021/12/24 02:31:59;;;;;;;;;10.50;10.50;;;;;18.10;38.18;100575.50;5036568;28;52035;-50
2021/12/24 02:34:24;;;;;;;;;8.50;8.25;;;;;18.09;38.37;100582.88;5036823;28;50929;-49
2021/12/24 02:36:51;;;;;;;;;8.50;8.50;;;;;18.10;38.35;100581.81;5037296;28;51087;-48
2021/12/24 02:39:16;;;;;;;;;11.00;10.00;;;;;18.09;38.61;100584.78;5036471;28;51333;-48
2021/12/24 02:41:42;;;;;;;;;11.25;11.25;;;;;18.08;38.19;100569.38;5036649;28;51024;-48
2021/12/24 02:44:07;;;;;;;;;11.50;10.25;;;;;18.09;38.27;100573.81;5036862;28;51143;-49
2021/12/24 02:46:41;;;;;;;;;11.00;8.00;;;;;18.09;38.46;100571.06;5036603;28;51160;-47
2021/12/24 02:49:14;;;;;;;;;11.25;10.50;;;;;18.08;38.17;100570.22;5036803;28;51667;-46
2021/12/24 02:54:24;;;;;;;;;9.75;9.25;;;;;18.09;38.21;100568.31;5036616;28;51021;-47
2021/12/24 02:56:53;;;;;;;;;11.00;10.75;;;;;18.09;38.49;100562.84;5036793;28;51108;-47
2021/12/24 02:59:25;;;;;;;;;12.75;9.50;;;;;18.09;38.21;100565.59;5036491;28;51113;-47
2021/12/24 03:01:52;;;;;;;;;10.00;10.00;;;;;18.09;38.36;100569.16;5036216;28;51937;-47
2021/12/24 03:04:17;;;;;;;;;7.75;7.25;;;;;18.08;38.33;100567.50;5036444;28;51024;-45
2021/12/24 03:06:46;;;;;;;;;14.50;12.75;;;;;18.08;38.31;100569.38;5036595;28;51102;-46
2021/12/24 03:09:15;;;;;;;;;11.50;10.25;;;;;18.09;38.16;100571.06;5036599;28;50985;-45
2021/12/24 03:11:42;;;;;;;;;8.75;8.75;;;;;18.08;38.06;100567.50;5035872;28;52598;-49
2021/12/24 03:14:09;;;;;;;;;9.75;9.25;;;;;18.09;38.30;100568.31;5036227;28;51495;-49
2021/12/24 03:16:35;;;;;;;;;11.75;10.00;;;;;18.09;38.79;100571.06;5026016;28;51081;-49
2021/12/24 03:19:01;;;;;;;;;8.50;7.25;;;;;18.08;38.47;100561.16;5016444;28;51317;-47
2021/12/24 03:21:33;;;;;;;;;11.75;11.25;;;;;18.08;38.38;100561.16;5016028;28;51896;-50
2021/12/24 03:26:36;;;;;;;;;10.75;10.00;;;;;18.07;38.22;100551.25;5021417;28;51108;-50
2021/12/24 03:29:04;;;;;;;;;11.75;10.00;;;;;18.08;38.19;100552.94;5036419;28;51276;-51
2021/12/24 03:31:29;;;;;;;;;9.25;9.25;;;;;18.08;38.02;100550.19;5035842;28;51055;-48
2021/12/24 03:33:55;;;;;;;;;10.50;10.00;;;;;18.07;38.18;100545.78;5035788;28;51078;-51
2021/12/24 03:36:22;;;;;;;;;9.50;9.00;;;;;18.07;38.25;100543.03;5036161;28;51360;-53
2021/12/24 03:38:47;;;;;;;;;11.25;10.00;;;;;18.07;38.20;100530.16;5035807;28;51342;-49
2021/12/24 03:41:13;;;;;;;;;10.75;10.00;;;;;18.07;38.10;100543.03;5035615;28;51168;-51
2021/12/24 03:43:38;;;;;;;;;14.00;10.00;;;;;18.06;38.43;100533.13;5035896;28;51159;-50
2021/12/24 03:46:08;;;;;;;;;10.75;7.50;;;;;18.05;38.16;100537.78;5036165;28;50953;-48
2021/12/24 03:56:41;;;;;;;;;8.00;8.00;;;;;18.06;38.33;100530.38;5035724;28;51065;-50
2021/12/24 03:59:08;;;;;;;;;11.75;10.00;;;;;18.05;38.46;100531.44;5036052;28;51309;-50
2021/12/24 04:01:34;;;;;;;;;11.50;10.25;;;;;18.05;38.39;100518.59;5035609;28;52010;-51
2021/12/24 04:04:00;;;;;;;;;9.25;8.25;;;;;18.05;38.35;100515.00;5039184;28;51003;-49
2021/12/24 04:06:26;;;;;;;;;8.75;8.75;;;;;18.05;38.30;100517.75;5039503;28;51097;-50
2021/12/24 04:08:52;;;;;;;;;14.50;10.50;;;;;18.04;38.28;100505.94;5039463;28;51264;-46
2021/12/24 04:11:17;;;;;;;;;10.25;10.00;;;;;18.04;38.53;100508.69;5038918;28;51135;-52
2021/12/24 04:13:43;;;;;;;;;10.75;9.50;;;;;18.05;38.41;100498.56;5039016;28;51039;-51
2021/12/24 04:16:08;;;;;;;;;9.25;9.25;;;;;18.05;38.45;100498.56;5033765;28;51022;-51
2021/12/24 04:18:48;;;;;;;;;13.75;10.75;;;;;18.05;38.24;100498.56;5019136;28;51021;-47
2021/12/24 04:26:42;;;;;;;;;11.00;8.50;;;;;18.03;38.48;100493.28;5025995;28;51135;-50
2021/12/24 04:29:08;;;;;;;;;11.00;9.50;;;;;18.03;38.41;100486.94;5039075;28;51310;-51
2021/12/24 04:32:19;;;;;;;;;10.00;8.00;;;;;18.02;38.41;100477.03;5038539;28;51881;-49
2021/12/24 04:34:26;;;;;;;;;9.50;7.00;;;;;18.02;38.26;100466.06;5033009;28;51409;-49
2021/12/24 04:53:20;;;;;;;;;9.25;7.50;;;;;18.01;38.63;100464.41;5038310;28;51470;-50
2021/12/24 05:03:58;;;;;;;;;17.50;11.00;;;;;18.00;38.54;100462.72;4995865;28;51728;-48
2021/12/24 05:08:52;;;;;;;;;8.50;7.00;;;;;18.00;38.65;100451.75;5015892;28;51094;-49
2021/12/24 05:11:20;;;;;;;;;15.00;10.50;;;;;18.00;38.46;100460.81;5038221;28;51160;-50
2021/12/24 05:13:46;;;;;;;;;9.00;8.00;;;;;18.00;38.59;100468.19;5037794;28;51001;-49
2021/12/24 05:24:06;;;;;;;;;10.25;9.25;;;;;18.00;38.66;100460.81;5018136;28;51533;-51
2021/12/24 05:26:33;;;;;;;;;9.50;7.75;;;;;17.99;38.61;100450.06;5023421;28;51019;-49
2021/12/24 05:28:59;;;;;;;;;10.25;10.25;;;;;17.98;38.49;100442.91;5038064;28;51039;-50
2021/12/24 05:31:26;;;;;;;;;9.75;8.50;;;;;17.99;38.29;100445.44;5038071;28;51382;-48
2021/12/24 05:33:51;;;;;;;;;12.00;9.50;;;;;18.00;38.68;100451.75;5037592;28;51831;-50
2021/12/24 05:36:17;;;;;;;;;11.00;8.00;;;;;17.99;38.40;100441.84;5038074;28;51013;-48
2021/12/24 05:38:43;;;;;;;;;9.25;9.25;;;;;17.99;38.46;100436.38;5037578;28;51093;-50
2021/12/24 05:41:09;;;;;;;;;8.75;8.75;;;;;17.97;38.48;100433.84;5037724;28;51028;-46
2021/12/24 05:43:34;;;;;;;;;10.50;8.75;;;;;17.99;38.68;100439.09;5037374;28;52120;-51
2021/12/24 05:46:00;;;;;;;;;11.25;9.25;;;;;17.98;38.50;100440.16;5037604;28;51454;-46
2021/12/24 05:48:25;;;;;;;;;11.75;9.75;;;;;17.98;38.69;100438.25;5037541;28;51072;-45
2021/12/24 05:50:50;;;;;;;;;7.00;7.00;;;;;17.99;38.76;100441.84;5037743;28;51120;-50
2021/12/24 05:53:16;;;;;;;;;11.25;8.75;;;;;17.97;38.56;100450.28;5037500;28;50967;-49
2021/12/24 05:55:41;;;;;;;;;9.75;8.50;;;;;17.98;38.42;100454.72;5037260;28;51091;-49
2021/12/24 05:58:08;;;;;;;;;12.00;12.00;;;;;17.97;38.58;100447.56;5037597;28;51163;-47
2021/12/24 06:00:39;;;;;;;;;9.25;9.25;;;;;17.97;38.76;100449.44;5037643;28;51103;-46
2021/12/24 06:03:06;;;;;;;;;11.50;10.25;;;;;17.97;38.53;100463.16;5036963;28;52007;-50
2021/12/24 06:05:36;;;;;;;;;11.00;10.00;;;;;17.97;38.70;100460.41;5037403;28;51274;-50
2021/12/24 06:08:02;;;;;;;;;8.25;8.25;;;;;17.97;38.52;100458.50;5037535;28;51030;-48
2021/12/24 06:10:28;;;;;;;;;9.00;8.00;;;;;17.97;38.66;100458.50;5037403;28;51323;-50
2021/12/24 06:12:54;;;;;;;;;10.75;9.00;;;;;17.98;38.67;100464.84;5036896;28;51039;-47
2021/12/24 06:15:24;;;;;;;;;8.50;8.25;;;;;17.97;38.79;100468.63;5037134;28;51021;-49
2021/12/24 06:17:53;;;;;;;;;12.00;10.25;;;;;17.95;38.80;100468.84;5017749;28;50956;-50
2021/12/24 06:20:20;;;;;;;;;8.25;8.00;;;;;17.97;38.59;100474.13;5017570;28;51064;-53
2021/12/24 06:22:47;;;;;;;;;9.00;9.00;;;;;17.97;38.59;100465.91;5016975;28;51795;-52
2021/12/24 06:25:12;;;;;;;;;10.50;10.25;;;;;17.97;38.71;100469.47;5015993;28;50991;-49
2021/12/24 06:27:38;;;;;;;;;10.75;10.25;;;;;17.96;38.50;100454.09;5031822;28;51261;-49
2021/12/24 06:30:06;;;;;;;;;9.00;7.50;;;;;17.96;38.74;100456.00;5037371;28;51098;-50
2021/12/24 06:32:32;;;;;;;;;9.25;8.25;;;;;17.96;38.59;100451.34;5036654;28;51877;-52
2021/12/24 06:34:58;;;;;;;;;11.00;9.25;;;;;17.96;38.60;100447.75;5036852;28;51127;-51
2021/12/24 06:37:24;;;;;;;;;9.25;9.25;;;;;17.97;38.76;100446.72;5037003;28;51056;-50
2021/12/24 06:39:50;;;;;;;;;9.50;7.25;;;;;17.96;38.60;100434.06;5036884;28;51146;-49
2021/12/24 06:42:15;;;;;;;;;10.00;7.00;;;;;17.96;38.69;100434.91;5036505;28;51742;-49
2021/12/24 06:44:41;;;;;;;;;10.00;9.50;;;;;17.95;38.64;100435.97;5036870;28;51056;-51
2021/12/24 06:47:07;;;;;;;;;7.00;7.00;;;;;17.96;38.51;100434.06;5036797;28;51002;-50
2021/12/24 06:49:33;;;;;;;;;10.25;9.00;;;;;17.96;38.57;100440.38;5036645;28;51216;-51
2021/12/24 06:51:58;;;;;;;;;11.75;10.00;;;;;17.96;38.88;100437.66;5036363;28;50992;-51
2021/12/24 06:54:24;;;;;;;;;6.50;4.75;;;;;17.95;38.92;100435.97;5035207;28;51082;-47
2021/12/24 06:56:50;;;;;;;;;8.25;6.75;;;;;17.95;38.91;100432.38;5036399;28;50995;-47
2021/12/24 06:59:15;;;;;;;;;7.25;7.25;;;;;17.94;38.86;100431.53;5036766;28;51181;-46
2021/12/24 07:01:41;;;;;;;;;8.75;6.50;;;;;17.95;39.25;100435.13;5036292;28;51109;-50
2021/12/24 07:04:07;;;;;;;;;5.75;5.75;;;;;17.95;38.88;100438.72;5036304;28;51044;-51
2021/12/24 07:06:33;;;;;;;;;9.50;8.25;;;;;17.96;38.88;100439.53;5036499;28;51428;-51
2021/12/24 07:08:59;;;;;;;;;11.25;9.00;;;;;17.95;38.92;100451.56;5036215;28;51322;-50
2021/12/24 07:11:24;;;;;;;;;7.75;6.00;;;;;17.94;38.92;100437.03;5036096;28;51009;-48
2021/12/24 07:13:51;;;;;;;;;7.00;7.00;;;;;17.94;38.89;100439.75;5035967;28;51016;-47
2021/12/24 07:16:16;;;;;;;;;8.50;8.50;;;;;17.93;38.77;100434.50;5028427;28;51040;-48
2021/12/24 07:18:42;;;;;;;;;8.00;8.00;;;;;17.94;38.84;100436.19;5016275;28;51045;-49
2021/12/24 07:21:08;;;;;;;;;8.00;6.75;;;;;17.94;38.81;100433.44;5016020;28;51591;-46
2021/12/24 07:23:34;;;;;;;;;7.00;6.25;;;;;17.94;39.01;100431.53;5014885;28;51040;-47
2021/12/24 07:26:00;;;;;;;;;9.00;9.00;;;;;17.93;39.14;100431.75;5017293;28;50988;-47
2021/12/24 07:28:25;;;;;;;;;6.75;6.75;;;;;17.92;39.03;100430.88;5036323;28;51324;-51
2021/12/24 07:30:51;;;;;;;;;6.50;6.50;;;;;17.93;38.93;100434.50;5035742;28;51625;-49
2021/12/24 07:33:16;;;;;;;;;7.25;6.50;;;;;17.93;38.94;100429.03;5035784;28;50962;-48
2021/12/24 07:35:43;;;;;;;;;6.75;6.75;;;;;17.93;39.01;100423.53;5051317;28;51122;-49
2021/12/24 07:38:09;;;;;;;;;8.75;8.75;;;;;17.92;39.03;100411.72;5034885;28;51270;-47
2021/12/24 07:40:36;;;;;;;;;9.25;6.75;;;;;17.93;38.73;100420.81;5035620;28;50992;-50
2021/12/24 07:43:02;;;;;;;;;9.25;8.00;;;;;17.92;38.92;100419.94;5035920;28;51099;-50
2021/12/24 07:45:27;;;;;;;;;6.75;6.75;;;;;17.92;38.86;100428.16;5035975;28;51055;-49
2021/12/24 07:48:09;;;;;;;;;6.25;6.25;;;;;17.93;39.28;100437.25;5035830;28;51255;-49
2021/12/24 07:53:05;;;;;;;;;6.25;6.25;;;;;17.93;39.08;100429.03;5035584;28;50976;-49
2021/12/24 07:55:31;;;;;;;;;7.75;6.75;;;;;17.93;39.22;100434.50;5035513;28;51126;-46
2021/12/24 07:57:56;;;;;;;;;5.50;5.50;;;;;17.92;38.94;100422.66;5035663;28;51208;-49
2021/12/24 08:00:25;;;;;;;;;4.75;4.75;;;;;17.91;38.91;100421.00;5035443;28;51861;-48
2021/12/24 08:02:51;;;;;;;;;9.00;9.00;;;;;17.92;38.63;100430.06;5035187;28;51061;-53
2021/12/24 08:05:22;;;;;;;;;6.00;5.50;;;;;17.91;38.93;100414.66;5035573;28;51067;-49
2021/12/24 08:07:49;;;;;;;;;6.00;5.00;;;;;17.91;38.89;100415.50;5035647;28;51051;-48
2021/12/24 08:10:15;;;;;;;;;7.25;6.50;;;;;17.91;39.23;100412.78;5035046;28;51156;-46
2021/12/24 08:12:40;;;;;;;;;7.50;5.50;;;;;17.91;39.11;100415.50;5035382;28;51424;-48
2021/12/24 08:15:07;;;;;;;;;7.50;5.50;;;;;17.92;39.04;100399.91;5035384;28;50979;-48
2021/12/24 08:17:32;;;;;;;;;7.25;5.75;;;;;17.92;39.11;100391.69;5017181;28;51257;-48
2021/12/24 08:19:58;;;;;;;;;6.25;5.00;;;;;17.89;39.31;100402.03;5015250;28;51860;-51
2021/12/24 08:22:23;;;;;;;;;9.00;6.75;;;;;17.91;39.04;100406.44;5015097;28;51084;-50
2021/12/24 08:24:49;;;;;;;;;8.00;7.00;;;;;17.89;39.05;100396.56;5015443;28;51045;-47
2021/12/24 08:27:14;;;;;;;;;5.75;5.75;;;;;17.89;38.99;100388.34;5042379;28;51357;-50
2021/12/24 08:29:40;;;;;;;;;6.25;6.25;;;;;17.91;39.37;100398.22;5034923;28;51586;-48
2021/12/24 08:32:06;;;;;;;;;6.50;6.50;;;;;17.90;39.45;100391.91;5035196;28;51027;-46
2021/12/24 08:34:33;;;;;;;;;5.00;5.00;;;;;17.90;39.35;100397.38;5034704;28;51127;-52
2021/12/24 08:36:58;;;;;;;;;6.50;5.75;;;;;17.89;39.13;100399.28;5035384;28;51088;-50
2021/12/24 08:39:24;;;;;;;;;6.50;6.00;;;;;17.88;39.39;100400.34;5034738;28;52168;-49
2021/12/24 08:41:54;;;;;;;;;9.75;7.25;;;;;17.89;39.30;100396.56;5034792;28;51072;-52
2021/12/24 08:44:21;;;;;;;;;7.00;5.50;;;;;17.89;39.37;100391.06;5035293;28;51182;-51
2021/12/24 08:46:47;;;;;;;;;6.25;6.25;;;;;17.90;39.26;100394.66;5035146;28;51207;-51
2021/12/24 08:49:12;;;;;;;;;5.50;5.00;;;;;17.89;39.46;100388.34;5037069;28;51143;-48
2021/12/24 08:51:37;;;;;;;;;5.25;5.00;;;;;17.89;39.40;100388.34;5038346;28;51112;-52
2021/12/24 08:54:03;;;;;;;;;5.50;5.50;;;;;17.90;39.08;100383.69;5038260;28;51152;-50
2021/12/24 08:56:28;;;;;;;;;5.00;5.00;;;;;17.89;39.33;100376.53;5038229;28;51363;-47
2021/12/24 08:58:54;;;;;;;;;4.00;4.00;;;;;17.90;39.08;100380.94;5038061;28;51012;-47
2021/12/24 09:01:19;;;;;;;;;6.00;6.00;;;;;17.90;39.31;100383.69;5038066;28;51067;-51
2021/12/24 09:03:44;;;;;;;;;4.25;4.25;;;;;17.88;39.32;100383.91;5038343;28;51060;-52
2021/12/24 09:06:10;;;;;;;;;5.75;4.50;;;;;17.89;39.38;100388.34;5038232;28;51101;-48
2021/12/24 09:08:35;;;;;;;;;7.75;5.75;;;;;17.89;39.32;100396.56;5037787;28;51252;-49
2021/12/24 09:11:02;;;;;;;;;5.00;5.00;;;;;17.89;39.31;100399.28;5037711;28;51062;-47
2021/12/24 09:13:28;;;;;;;;;5.00;5.00;;;;;17.89;39.16;100396.56;5038067;28;51057;-51
2021/12/24 09:15:56;;;;;;;;;6.25;5.00;;;;;17.89;39.16;100392.97;5034716;28;50995;-51
2021/12/24 09:18:22;;;;;;;;;5.00;5.00;;;;;17.89;39.57;100398.44;5017789;28;51059;-49
2021/12/24 09:20:48;;;;;;;;;10.50;6.75;;;;;17.89;39.02;100396.56;5017833;28;51044;-50
2021/12/24 09:23:14;;;;;;;;;5.00;4.25;;;;;17.88;39.42;100397.59;5017806;28;51121;-46
2021/12/24 09:25:40;;;;;;;;;4.50;4.50;;;;;17.89;39.39;100401.19;5017709;28;51028;-51
2021/12/24 09:28:06;;;;;;;;;5.00;5.00;;;;;17.89;39.30;100392.97;5036150;28;51706;-51
2021/12/24 09:30:33;;;;;;;;;5.75;4.00;;;;;17.90;39.55;100394.66;5037294;28;50963;-49
2021/12/24 09:32:58;;;;;;;;;5.25;4.75;;;;;17.89;39.33;100396.56;5037200;28;51137;-50
2021/12/24 09:35:26;;;;;;;;;5.00;4.50;;;;;17.90;39.59;100394.66;5037580;28;51014;-49
2021/12/24 09:37:53;;;;;;;;;5.25;4.00;;;;;17.89;39.29;100395.72;5036888;28;51837;-49
2021/12/24 09:40:19;;;;;;;;;3.00;3.00;;;;;17.89;39.65;100396.56;5037041;28;51342;-47
2021/12/24 09:42:46;;;;;;;;;6.25;5.00;;;;;17.89;39.63;100399.28;5036344;28;51094;-48
2021/12/24 09:45:12;;;;;;;;;6.25;4.00;;;;;17.89;39.59;100393.81;5037620;28;51092;-48
2021/12/24 09:47:39;;;;;;;;;5.25;4.25;;;;;17.90;39.66;100386.44;5037101;28;52002;-49
2021/12/24 09:50:07;;;;;;;;;3.25;3.25;;;;;17.89;39.61;100374.63;5036798;28;50916;-49
2021/12/24 09:52:34;;;;;;;;;3.50;3.50;;;;;17.89;39.40;100374.63;5036923;28;51310;-49
2021/12/24 09:55:13;;;;;;;;;4.00;4.00;;;;;17.90;39.71;100378.22;5037037;28;51047;-52
2021/12/24 09:57:39;;;;;;;;;5.00;4.75;;;;;17.89;39.57;100374.63;5036842;28;51228;-52
2021/12/24 10:00:06;;;;;;;;;7.00;4.25;;;;;17.90;39.72;100391.91;5035756;28;51104;-51
2021/12/24 10:02:42;;;;;;;;;5.50;5.00;;;;;17.92;39.36;100388.94;5036881;28;51104;-51
2021/12/24 10:05:29;;;;;;;;;6.25;4.25;;;;;17.91;39.48;100385.38;5037001;28;51104;-50
2021/12/24 10:08:02;;;;;;;;;4.25;4.25;;;;;17.91;39.56;100382.63;5036791;28;51814;-47
2021/12/24 10:10:30;;;;;;;;;6.25;4.00;;;;;17.91;39.55;100368.09;5036452;28;51021;-48
2021/12/24 10:12:58;;;;;;;;;5.75;5.00;;;;;17.91;39.40;100365.34;5037125;28;51200;-47
2021/12/24 10:15:23;;;;;;;;;4.00;4.00;;;;;17.91;39.60;100362.59;5036328;28;51031;-50
2021/12/24 10:17:49;;;;;;;;;3.00;3.00;;;;;17.91;39.66;100370.81;5016092;28;50948;-46
2021/12/24 10:20:17;;;;;;;;;3.00;3.00;;;;;17.91;39.67;100368.09;5015278;28;51113;-51
2021/12/24 10:22:43;;;;;;;;;6.00;4.50;;;;;17.91;39.54;100362.59;5017162;28;51649;-49
2021/12/24 10:25:12;;;;;;;;;4.00;3.50;;;;;17.89;39.53;100374.63;5016750;28;51216;-48
2021/12/24 10:27:38;;;;;;;;;5.25;5.25;;;;;17.91;39.62;100365.34;5031346;28;51827;-47
2021/12/24 10:30:29;;;;;;;;;5.75;4.50;;;;;17.91;39.77;100360.72;5036505;28;51110;-50
2021/12/24 10:32:57;;;;;;;;;5.75;5.50;;;;;17.89;39.42;100355.44;5036189;28;51060;-50
2021/12/24 10:35:28;;;;;;;;;2.50;1.25;;;;;17.89;39.83;100349.97;5036701;28;50950;-48
2021/12/24 10:38:12;;;;;;;;;4.00;4.00;;;;;17.89;39.57;100352.72;5036399;28;51154;-52
2021/12/24 10:40:51;;;;;;;;;5.00;5.00;;;;;17.89;39.55;100340.91;5035908;28;51061;-47
2021/12/24 10:43:28;;;;;;;;;5.00;5.00;;;;;17.91;39.83;100333.31;5036303;28;51052;-53
2021/12/24 10:46:19;;;;;;;;;6.75;5.75;;;;;17.89;39.90;100322.56;5036272;28;51274;-48
2021/12/24 10:49:08;;;;;;;;;3.25;2.75;;;;;17.90;40.01;100326.16;5035746;28;51660;-49
2021/12/24 10:52:00;;;;;;;;;6.75;4.00;;;;;17.90;39.63;100326.16;5035734;28;51075;-49
2021/12/24 10:54:27;;;;;;;;;4.00;3.00;;;;;17.91;39.55;100326.97;5035566;28;50988;-51
2021/12/24 10:56:54;;;;;;;;;5.75;5.75;;;;;17.91;39.72;100333.31;5035760;28;51316;-49
2021/12/24 10:59:54;;;;;;;;;4.75;4.75;;;;;17.91;39.76;100330.56;5035719;28;51909;-51
2021/12/24 11:02:24;;;;;;;;;5.00;4.25;;;;;17.91;39.70;100322.34;5013132;28;51126;-53
2021/12/24 11:04:53;;;;;;;;;6.25;5.25;;;;;17.91;39.77;100325.09;5035893;28;51121;-51
2021/12/24 11:07:38;;;;;;;;;5.75;5.50;;;;;17.91;39.68;100322.34;5036157;28;51028;-52
2021/12/24 11:10:19;;;;;;;;;6.00;6.00;;;;;17.92;39.62;100314.97;5035444;28;51698;-53
2021/12/24 11:13:10;;;;;;;;;7.75;5.75;;;;;17.91;39.77;100299.59;5035212;28;51245;-52
2021/12/24 11:15:41;;;;;;;;;4.75;4.75;;;;;17.91;39.87;100299.59;5035565;28;51405;-52
2021/12/24 11:18:14;;;;;;;;;4.25;4.25;;;;;17.91;39.73;100292.19;5016829;28;51112;-48
2021/12/24 11:20:40;;;;;;;;;4.50;3.75;;;;;17.90;39.81;100287.78;5013690;28;52052;-46
2021/12/24 11:23:08;;;;;;;;;6.25;5.00;;;;;17.91;39.96;100274.91;5015674;28;51207;-51
2021/12/24 11:25:40;;;;;;;;;8.75;4.25;;;;;17.89;39.68;100270.50;5015586;28;51203;-53
2021/12/24 11:28:08;;;;;;;;;9.50;6.25;;;;;17.92;39.61;100268.38;5033908;28;51120;-50
2021/12/24 11:30:37;;;;;;;;;5.50;5.00;;;;;17.91;39.63;100270.28;5035013;28;52987;-49
2021/12/24 11:33:03;;;;;;;;;3.75;3.75;;;;;17.91;39.56;100262.06;5034963;28;51028;-51
2021/12/24 11:35:29;;;;;;;;;4.00;4.00;;;;;17.92;39.92;100262.91;5033846;28;51151;-50
2021/12/24 11:37:56;;;;;;;;;4.50;4.00;;;;;17.92;39.57;100261.00;5035363;28;51108;-50
2021/12/24 11:40:24;;;;;;;;;4.75;3.75;;;;;17.92;39.80;100257.41;5034837;28;52796;-51
2021/12/24 11:42:58;;;;;;;;;5.50;5.50;;;;;17.93;39.58;100259.13;5035188;28;51325;-49
2021/12/24 11:45:26;;;;;;;;;8.00;5.00;;;;;17.92;39.70;100260.16;5035095;28;51349;-49
2021/12/24 11:47:52;;;;;;;;;8.25;3.75;;;;;17.91;39.94;100262.06;5035287;28;51137;-49
2021/12/24 11:50:19;;;;;;;;;2.25;2.25;;;;;17.93;39.87;100267.34;5035081;28;52037;-51
2021/12/24 11:52:48;;;;;;;;;4.75;4.00;;;;;17.93;39.84;100272.84;5035037;28;51363;-52
2021/12/24 11:55:14;;;;;;;;;5.50;5.50;;;;;17.93;39.85;100270.09;5035071;28;51149;-50
2021/12/24 11:58:01;;;;;;;;;4.75;3.00;;;;;17.94;39.69;100271.75;5035497;28;51037;-52
2021/12/24 12:00:31;;;;;;;;;5.00;4.75;;;;;17.93;39.96;100278.31;5034830;28;50997;-47
2021/12/24 12:02:56;;;;;;;;;6.50;5.50;;;;;17.93;39.96;100265.44;5032456;28;51166;-51
2021/12/24 12:05:32;;;;;;;;;5.25;4.75;;;;;17.94;39.59;100266.28;5034981;28;51000;-52
2021/12/24 12:08:36;;;;;;;;;4.00;4.00;;;;;17.93;39.62;100264.59;5035025;28;50999;-49
2021/12/24 12:11:28;;;;;;;;;6.00;4.25;;;;;17.93;39.82;100254.50;5012986;28;51791;-51
2021/12/24 12:14:05;;;;;;;;;5.00;3.75;;;;;17.92;39.72;100252.78;5030227;28;51705;-49
2021/12/24 12:16:42;;;;;;;;;3.00;3.00;;;;;17.93;39.85;100259.13;5030366;28;50979;-48
2021/12/24 12:19:22;;;;;;;;;5.50;5.50;;;;;17.92;39.91;100252.78;5014817;28;51364;-51
2021/12/24 12:22:43;;;;;;;;;5.00;5.00;;;;;17.92;39.77;100258.25;5014547;28;52750;-50
2021/12/24 12:25:04;;;;;;;;;5.00;4.00;;;;;17.93;39.96;100259.13;5017989;28;51005;-51
2021/12/24 12:27:45;;;;;;;;;5.75;5.00;;;;;17.92;39.80;100268.38;5031971;28;51196;-50
2021/12/24 12:30:16;;;;;;;;;5.50;3.50;;;;;17.93;39.86;100270.09;5038385;28;51171;-48
2021/12/24 12:32:42;;;;;;;;;5.75;4.25;;;;;17.92;39.95;100271.97;5037644;28;51044;-47
2021/12/24 12:35:08;;;;;;;;;5.50;4.00;;;;;17.93;39.98;100259.13;5038285;28;51123;-50
2021/12/24 12:37:56;;;;;;;;;8.00;6.50;;;;;17.93;39.91;100261.88;5037854;28;51238;-50
2021/12/24 12:40:21;;;;;;;;;4.25;2.75;;;;;17.93;39.86;100250.91;5036335;28;51129;-52
2021/12/24 12:42:50;;;;;;;;;4.75;4.75;;;;;17.91;39.80;100237.41;5038152;28;51853;-50
2021/12/24 12:45:21;;;;;;;;;5.50;4.25;;;;;17.92;40.04;100251.94;5037965;28;51085;-53
2021/12/24 12:47:55;;;;;;;;;4.50;4.50;;;;;17.92;40.19;100251.94;5037759;28;51001;-52
2021/12/24 12:50:22;;;;;;;;;8.25;5.50;;;;;17.91;40.09;100250.25;5037558;28;51032;-51
2021/12/24 12:52:48;;;;;;;;;3.25;3.25;;;;;17.92;39.94;100240.97;5037336;28;51096;-48
2021/12/24 12:55:30;;;;;;;;;5.00;5.00;;;;;17.91;39.97;100240.13;5037735;28;51033;-51
2021/12/24 12:58:22;;;;;;;;;4.00;4.00;;;;;17.92;40.10;100219.06;5037872;28;51042;-48
2021/12/24 13:01:13;;;;;;;;;4.50;4.50;;;;;17.92;39.90;100219.91;5037549;28;51128;-49
2021/12/24 13:03:57;;;;;;;;;5.75;4.00;;;;;17.92;40.22;100216.31;5036915;28;51895;-51
2021/12/24 13:06:43;;;;;;;;;3.50;3.50;;;;;17.92;39.80;100219.06;5037122;28;51293;-50
2021/12/24 13:09:14;;;;;;;;;4.25;4.00;;;;;17.91;40.25;100212.75;5037505;28;51102;-52